Time;durP1;ratioP1;P1;durP2;ratioP2;P2;SDS_P1;SDS_P2;PMS_P1;PMS_P2;Temp;Humidity;BMP_temperature;BMP_pressure;BME280_temperature;BME280_humidity;BME280_pressure;Samples;Min_cycle;Max_cycle;Signal;HPM_P1;HPM_P2
2023/09/01 00:02:06;;;;;;;4.37;3.97;;;19.90;99.90;;;;;;5108468;28;21122;-78
2023/09/01 00:04:33;;;;;;;4.13;3.83;;;19.90;99.90;;;;;;5109715;28;20181;-78
2023/09/01 00:07:02;;;;;;;4.37;3.97;;;19.80;99.90;;;;;;5108430;28;20408;-78
2023/09/01 00:09:27;;;;;;;5.37;4.87;;;19.80;99.90;;;;;;5109365;28;20446;-79
2023/09/01 00:11:53;;;;;;;5.10;4.70;;;19.80;99.90;;;;;;5109670;28;20489;-78
2023/09/01 00:14:19;;;;;;;4.60;4.20;;;19.70;99.90;;;;;;5109387;28;20198;-78
2023/09/01 00:16:44;;;;;;;4.60;4.20;;;19.70;99.90;;;;;;5108313;28;20183;-78
2023/09/01 00:19:10;;;;;;;4.90;4.47;;;19.70;99.90;;;;;;5107577;28;20575;-79
2023/09/01 00:21:36;;;;;;;4.93;4.53;;;19.60;99.90;;;;;;5108363;28;20226;-79
2023/09/01 00:24:03;;;;;;;7.20;4.80;;;19.60;99.90;;;;;;5109197;28;20175;-78
2023/09/01 00:26:29;;;;;;;5.17;4.73;;;19.60;99.90;;;;;;5109706;28;20195;-79
2023/09/01 00:28:54;;;;;;;4.83;4.43;;;19.50;99.90;;;;;;5108896;28;20652;-77
2023/09/01 00:31:20;;;;;;;4.70;4.27;;;19.50;99.90;;;;;;5108004;28;20221;-79
2023/09/01 00:33:46;;;;;;;5.47;5.00;;;19.50;99.90;;;;;;5107687;28;20175;-78
2023/09/01 00:36:12;;;;;;;4.67;4.27;;;19.50;99.90;;;;;;5109386;28;20493;-79
2023/09/01 00:38:37;;;;;;;5.10;4.60;;;19.50;99.90;;;;;;5108677;28;20350;-79
2023/09/01 00:41:03;;;;;;;4.80;4.40;;;19.50;99.90;;;;;;5107688;28;20279;-79
2023/09/01 00:43:29;;;;;;;4.23;3.93;;;19.40;99.90;;;;;;5108807;28;20517;-79
2023/09/01 00:45:56;;;;;;;4.63;4.23;;;19.40;99.90;;;;;;5108169;28;20356;-79
2023/09/01 00:48:22;;;;;;;4.93;4.37;;;19.40;99.90;;;;;;5108604;28;20572;-77
2023/09/01 00:50:49;;;;;;;6.60;5.70;;;19.30;99.90;;;;;;5108745;28;20509;-79
2023/09/01 00:53:16;;;;;;;5.30;4.80;;;19.30;99.90;;;;;;5108810;28;20779;-79
2023/09/01 00:55:42;;;;;;;5.63;5.03;;;19.30;99.90;;;;;;5107541;28;20834;-78
2023/09/01 00:58:07;;;;;;;6.70;5.73;;;19.30;99.90;;;;;;5107161;28;20426;-78
2023/09/01 01:00:33;;;;;;;5.60;5.10;;;19.20;99.90;;;;;;5107717;28;20587;-78
2023/09/01 01:03:05;;;;;;;7.10;6.40;;;19.20;99.90;;;;;;5108868;28;20207;-78
2023/09/01 01:05:57;;;;;;;6.80;5.87;;;19.20;99.90;;;;;;5109022;28;21003;-78
2023/09/01 01:08:28;;;;;;;6.20;5.60;;;19.10;99.90;;;;;;5108357;28;20404;-78
2023/09/01 01:11:14;;;;;;;6.47;5.80;;;19.00;99.90;;;;;;5107106;28;20446;-78
2023/09/01 01:13:46;;;;;;;6.30;5.43;;;19.00;99.90;;;;;;5108711;28;20395;-78
2023/09/01 01:16:16;;;;;;;5.87;5.37;;;19.00;99.90;;;;;;5107193;28;20957;-78
2023/09/01 01:18:45;;;;;;;6.10;5.50;;;19.00;99.90;;;;;;5107766;28;20502;-79
2023/09/01 01:21:21;;;;;;;4.83;4.43;;;19.00;99.90;;;;;;5108534;28;20993;-78
2023/09/01 01:23:48;;;;;;;5.30;4.80;;;19.00;99.90;;;;;;5108027;28;20763;-79
2023/09/01 01:26:15;;;;;;;5.57;5.07;;;18.90;99.90;;;;;;5108285;28;20515;-78
2023/09/01 01:28:40;;;;;;;5.63;4.93;;;18.90;99.90;;;;;;5108146;28;20765;-78
2023/09/01 01:31:06;;;;;;;5.53;5.03;;;18.80;99.90;;;;;;5106662;28;20515;-78
2023/09/01 01:33:43;;;;;;;5.80;5.30;;;18.80;99.90;;;;;;5107863;28;20171;-78
2023/09/01 01:36:18;;;;;;;5.60;5.10;;;18.80;99.90;;;;;;5106783;28;20201;-78
2023/09/01 01:38:56;;;;;;;5.67;5.17;;;18.80;99.90;;;;;;5107817;28;20498;-78
2023/09/01 01:41:33;;;;;;;5.77;5.27;;;18.80;99.90;;;;;;5108121;28;20462;-78
2023/09/01 01:44:03;;;;;;;5.50;4.93;;;18.80;99.90;;;;;;5107407;28;20502;-78
2023/09/01 01:46:29;;;;;;;5.50;4.47;;;18.80;99.90;;;;;;5107335;28;20443;-78
2023/09/01 01:48:55;;;;;;;5.23;4.73;;;18.70;99.90;;;;;;5106866;28;20424;-79
2023/09/01 01:51:20;;;;;;;5.73;5.13;;;18.70;99.90;;;;;;5107924;28;20286;-78
2023/09/01 01:53:46;;;;;;;7.00;5.30;;;18.70;99.90;;;;;;5107380;28;20430;-78
2023/09/01 01:56:13;;;;;;;5.73;5.23;;;18.70;99.90;;;;;;5107861;28;20191;-78
2023/09/01 01:58:41;;;;;;;5.67;5.10;;;18.60;99.90;;;;;;5105632;28;20174;-78
2023/09/01 02:01:07;;;;;;;5.57;5.10;;;18.50;99.90;;;;;;5106110;28;20502;-78
2023/09/01 02:03:33;;;;;;;5.47;4.97;;;18.50;99.90;;;;;;5107292;28;20950;-78
2023/09/01 02:05:58;;;;;;;5.27;4.77;;;18.50;99.90;;;;;;5105808;28;20713;-78
2023/09/01 02:08:25;;;;;;;5.07;4.63;;;18.40;99.90;;;;;;5107350;27;20406;-78
2023/09/01 02:10:50;;;;;;;5.20;4.80;;;18.40;99.90;;;;;;5107537;27;20198;-78
2023/09/01 02:13:16;;;;;;;6.03;5.23;;;18.40;99.90;;;;;;5106649;28;20413;-78
2023/09/01 02:15:50;;;;;;;5.77;4.70;;;18.40;99.90;;;;;;5107396;28;20434;-78
2023/09/01 02:18:17;;;;;;;5.30;4.70;;;18.30;99.90;;;;;;5106826;28;20303;-79
2023/09/01 02:20:43;;;;;;;6.10;5.03;;;18.30;99.90;;;;;;5107001;28;20503;-78
2023/09/01 02:23:08;;;;;;;5.63;4.90;;;18.30;99.90;;;;;;5106580;28;20468;-78
2023/09/01 02:25:37;;;;;;;6.30;5.57;;;18.30;99.90;;;;;;5107592;28;20186;-78
2023/09/01 02:28:04;;;;;;;4.60;4.20;;;18.30;99.90;;;;;;5105433;28;20262;-78
2023/09/01 02:30:30;;;;;;;6.33;5.60;;;18.30;99.90;;;;;;5107447;28;20426;-78
2023/09/01 02:32:56;;;;;;;6.23;5.63;;;18.20;99.90;;;;;;5105515;28;20910;-78
2023/09/01 02:35:22;;;;;;;5.50;4.97;;;18.20;99.90;;;;;;5106844;28;20544;-79
2023/09/01 02:37:49;;;;;;;4.87;4.47;;;18.20;99.90;;;;;;5107251;28;20650;-78
2023/09/01 02:40:15;;;;;;;6.40;5.80;;;18.20;99.90;;;;;;5106668;28;20685;-79
2023/09/01 02:42:42;;;;;;;6.37;5.03;;;18.10;99.90;;;;;;5106552;28;20470;-78
2023/09/01 02:45:11;;;;;;;5.87;5.37;;;18.10;99.90;;;;;;5106979;28;20464;-78
2023/09/01 02:47:37;;;;;;;6.23;5.67;;;18.10;99.90;;;;;;5106863;28;20505;-78
2023/09/01 02:50:07;;;;;;;6.20;5.60;;;18.10;99.90;;;;;;5103860;28;20525;-78
2023/09/01 02:52:32;;;;;;;7.20;5.77;;;18.00;99.90;;;;;;5105103;28;20192;-78
2023/09/01 02:54:58;;;;;;;5.60;5.03;;;17.90;99.90;;;;;;5106407;28;20929;-78
2023/09/01 02:57:24;;;;;;;6.50;5.40;;;17.80;99.90;;;;;;5106849;28;20775;-78
2023/09/01 02:59:53;;;;;;;6.23;5.60;;;17.80;99.90;;;;;;5105076;28;20454;-78
2023/09/01 03:02:19;;;;;;;5.53;4.97;;;17.70;99.90;;;;;;5105008;28;20447;-78
2023/09/01 03:04:45;;;;;;;5.57;5.07;;;17.70;99.90;;;;;;5106490;28;20440;-78
2023/09/01 03:07:10;;;;;;;5.80;5.20;;;17.60;99.90;;;;;;5104798;28;20798;-78
2023/09/01 03:09:36;;;;;;;5.47;4.97;;;17.50;99.90;;;;;;5106353;28;20231;-78
2023/09/01 03:12:02;;;;;;;5.53;5.03;;;17.50;99.90;;;;;;5105838;28;20218;-78
2023/09/01 03:14:27;;;;;;;6.87;5.33;;;17.40;99.90;;;;;;5106068;28;20570;-78
2023/09/01 03:16:53;;;;;;;4.87;4.47;;;17.40;99.90;;;;;;5104951;28;20654;-78
2023/09/01 03:19:18;;;;;;;5.73;5.13;;;17.30;99.90;;;;;;5105821;28;20608;-78
2023/09/01 03:21:44;;;;;;;5.63;5.00;;;17.20;99.90;;;;;;5104874;28;20572;-80
2023/09/01 03:24:10;;;;;;;6.20;5.37;;;17.20;99.90;;;;;;5105118;28;20172;-80
2023/09/01 03:26:35;;;;;;;5.73;5.23;;;17.10;99.90;;;;;;5105216;28;20226;-80
2023/09/01 03:29:04;;;;;;;6.17;5.00;;;17.10;99.90;;;;;;5105760;28;20419;-78
2023/09/01 03:31:31;;;;;;;7.40;6.20;;;17.00;99.90;;;;;;5104772;28;20192;-78
2023/09/01 03:33:57;;;;;;;5.77;5.07;;;17.10;99.90;;;;;;5104163;28;20788;-78
2023/09/01 03:36:23;;;;;;;5.73;5.23;;;17.20;99.90;;;;;;5106053;28;20416;-78
2023/09/01 03:38:49;;;;;;;6.73;5.47;;;17.30;99.90;;;;;;5105524;28;20406;-78
2023/09/01 03:41:14;;;;;;;6.17;5.57;;;17.30;99.90;;;;;;5105798;28;20402;-78
2023/09/01 03:43:40;;;;;;;9.40;5.20;;;17.40;99.90;;;;;;5104022;28;20440;-78
2023/09/01 03:46:06;;;;;;;5.57;5.03;;;17.50;99.90;;;;;;5104232;28;20237;-78
2023/09/01 03:48:32;;;;;;;6.10;5.50;;;17.50;99.90;;;;;;5103938;28;20656;-79
2023/09/01 03:51:14;;;;;;;7.20;5.70;;;17.50;99.90;;;;;;5105671;28;20257;-78
2023/09/01 03:53:39;;;;;;;5.90;4.67;;;17.50;99.90;;;;;;5102953;28;20412;-78
2023/09/01 03:56:11;;;;;;;7.17;5.77;;;17.50;99.90;;;;;;5105769;28;20561;-78
2023/09/01 03:58:37;;;;;;;5.57;4.80;;;17.50;99.90;;;;;;5105438;28;20265;-79
2023/09/01 04:01:08;;;;;;;6.13;5.53;;;17.40;99.90;;;;;;5105487;28;20802;-79
2023/09/01 04:03:43;;;;;;;6.63;5.30;;;17.50;99.90;;;;;;5105348;28;20900;-79
2023/09/01 04:06:09;;;;;;;6.67;5.03;;;17.50;99.90;;;;;;5105783;28;20937;-79
2023/09/01 04:08:35;;;;;;;6.70;5.67;;;17.40;99.90;;;;;;5105389;28;20421;-78
2023/09/01 04:11:02;;;;;;;6.77;5.70;;;17.40;99.90;;;;;;5104966;28;20810;-79
2023/09/01 04:13:28;;;;;;;7.43;5.77;;;17.50;99.90;;;;;;5105043;28;20441;-79
2023/09/01 04:15:55;;;;;;;6.93;5.53;;;17.50;99.90;;;;;;5105694;28;20467;-79
2023/09/01 04:18:21;;;;;;;6.73;6.00;;;17.70;99.90;;;;;;5105254;28;20419;-80
2023/09/01 04:20:52;;;;;;;5.73;4.93;;;17.70;99.90;;;;;;5102901;28;21115;-80
2023/09/01 04:23:18;;;;;;;7.77;6.07;;;17.60;99.90;;;;;;5104425;28;20419;-80
2023/09/01 04:25:44;;;;;;;6.63;5.27;;;17.60;99.90;;;;;;5100325;28;20445;-80
2023/09/01 04:28:10;;;;;;;5.70;5.10;;;17.60;99.90;;;;;;5104098;28;20423;-79
2023/09/01 04:30:36;;;;;;;6.33;5.67;;;17.60;99.90;;;;;;5096871;28;21041;-80
2023/09/01 04:33:04;;;;;;;5.70;5.20;;;17.60;99.90;;;;;;5083870;28;20557;-79
2023/09/01 04:35:30;;;;;;;5.90;5.30;;;17.60;99.90;;;;;;5098799;28;20475;-79
2023/09/01 04:37:56;;;;;;;88.20;59.03;;;17.50;99.90;;;;;;5121140;27;20443;-80
2023/09/01 04:40:22;;;;;;;6.50;5.53;;;17.60;99.90;;;;;;5106557;28;20457;-79
2023/09/01 04:42:47;;;;;;;5.83;5.23;;;17.60;99.90;;;;;;5119732;27;20209;-80
2023/09/01 04:45:13;;;;;;;6.60;6.00;;;17.60;99.90;;;;;;5121590;27;20211;-80
2023/09/01 04:47:39;;;;;;;6.03;5.00;;;17.60;99.90;;;;;;5118509;27;20597;-80
2023/09/01 04:50:05;;;;;;;9.03;6.77;;;17.60;99.90;;;;;;5119315;27;20545;-80
2023/09/01 04:52:31;;;;;;;6.60;6.00;;;17.60;99.90;;;;;;5106892;28;20941;-80
2023/09/01 04:54:56;;;;;;;4.87;4.37;;;17.60;99.90;;;;;;5107181;28;20451;-81
2023/09/01 04:57:22;;;;;;;5.90;5.37;;;17.60;99.90;;;;;;5107723;28;20695;-80
2023/09/01 04:59:48;;;;;;;6.13;5.40;;;17.70;99.90;;;;;;5106448;28;20202;-80
2023/09/01 05:02:14;;;;;;;7.10;6.40;;;17.70;99.90;;;;;;5108121;28;20878;-80
2023/09/01 05:04:40;;;;;;;6.47;5.87;;;17.70;99.90;;;;;;5104437;28;20565;-79
2023/09/01 05:07:06;;;;;;;7.20;6.10;;;17.80;99.90;;;;;;5123647;27;20763;-79
2023/09/01 05:09:31;;;;;;;5.90;5.27;;;17.90;99.90;;;;;;5120991;27;20181;-81
2023/09/01 05:11:57;;;;;;;5.63;4.90;;;18.00;99.90;;;;;;5088201;28;20918;-80
2023/09/01 05:14:22;;;;;;;8.23;6.00;;;18.10;99.90;;;;;;5097557;27;20188;-80
2023/09/01 05:16:50;;;;;;;6.40;5.80;;;18.20;99.90;;;;;;5096170;28;20450;-79
2023/09/01 05:19:16;;;;;;;6.37;5.70;;;18.20;99.90;;;;;;5100885;28;20238;-79
2023/09/01 05:21:41;;;;;;;5.57;5.03;;;18.30;99.90;;;;;;5102730;28;20524;-79
2023/09/01 05:24:07;;;;;;;6.40;5.60;;;18.40;99.90;;;;;;5095483;28;20660;-80
2023/09/01 05:26:34;;;;;;;7.50;5.03;;;18.60;99.90;;;;;;5098745;28;20432;-79
2023/09/01 05:29:00;;;;;;;6.10;5.50;;;18.80;99.90;;;;;;5104256;28;21005;-80
2023/09/01 05:31:25;;;;;;;5.70;4.87;;;18.90;99.90;;;;;;5097140;28;20619;-80
2023/09/01 05:33:51;;;;;;;7.00;6.30;;;19.00;99.90;;;;;;5103856;27;20181;-80
2023/09/01 05:36:18;;;;;;;7.53;6.63;;;19.10;99.90;;;;;;5110147;27;20335;-80
2023/09/01 05:38:43;;;;;;;6.60;6.00;;;19.10;99.90;;;;;;5105468;28;20175;-81
2023/09/01 05:41:12;;;;;;;6.80;5.80;;;19.30;99.90;;;;;;5103613;28;21006;-80
2023/09/01 05:43:38;;;;;;;8.97;6.70;;;19.30;99.90;;;;;;5099300;28;20161;-80
2023/09/01 05:46:04;;;;;;;12.40;11.00;;;19.40;99.90;;;;;;5096740;28;20450;-79
2023/09/01 05:48:30;;;;;;;11.70;8.77;;;19.40;99.90;;;;;;5094386;28;20171;-79
2023/09/01 05:50:55;;;;;;;8.17;7.37;;;19.40;99.90;;;;;;5092325;28;20698;-79
2023/09/01 05:53:21;;;;;;;7.53;5.80;;;19.40;99.90;;;;;;5124161;27;20190;-81
2023/09/01 05:55:47;;;;;;;7.60;6.80;;;19.50;99.90;;;;;;5089385;28;20195;-79
2023/09/01 05:58:13;;;;;;;6.40;5.37;;;19.50;99.90;;;;;;5090444;28;20782;-79
2023/09/01 06:00:40;;;;;;;6.13;5.53;;;19.60;99.90;;;;;;5088736;28;20200;-80
2023/09/01 06:03:06;;;;;;;5.70;4.50;;;19.60;99.90;;;;;;5090115;28;20208;-80
2023/09/01 06:05:32;;;;;;;6.37;5.77;;;19.70;99.90;;;;;;5092854;28;20671;-80
2023/09/01 06:07:57;;;;;;;7.87;5.90;;;19.70;99.90;;;;;;5122719;27;20187;-79
2023/09/01 06:10:23;;;;;;;6.63;5.60;;;19.80;99.90;;;;;;5087784;28;20497;-81
2023/09/01 06:12:49;;;;;;;6.20;5.60;;;19.90;99.90;;;;;;5091070;28;20422;-80
2023/09/01 06:15:14;;;;;;;5.83;5.23;;;20.00;99.90;;;;;;5090550;28;20383;-80
2023/09/01 06:17:40;;;;;;;4.77;4.37;;;20.00;99.90;;;;;;5088471;28;20346;-79
2023/09/01 06:20:07;;;;;;;5.30;4.80;;;20.10;99.90;;;;;;5097050;28;20242;-80
2023/09/01 06:22:33;;;;;;;4.63;4.17;;;20.10;99.90;;;;;;5100118;28;20238;-80
2023/09/01 06:24:59;;;;;;;5.97;5.20;;;20.20;99.90;;;;;;5101374;28;20483;-79
2023/09/01 06:27:24;;;;;;;4.50;4.10;;;20.30;99.90;;;;;;5101251;28;20451;-79
2023/09/01 06:29:50;;;;;;;6.00;5.07;;;20.40;99.90;;;;;;5114501;27;20303;-80
2023/09/01 06:32:16;;;;;;;4.90;4.10;;;20.50;99.90;;;;;;5090901;28;20201;-80
2023/09/01 06:34:42;;;;;;;4.70;4.20;;;20.60;99.90;;;;;;5104279;28;20720;-79
2023/09/01 06:37:08;;;;;;;5.40;4.90;;;20.70;99.90;;;;;;5103831;28;20550;-79
2023/09/01 06:39:34;;;;;;;5.37;4.87;;;20.80;99.90;;;;;;5103777;28;20463;-80
2023/09/01 06:41:59;;;;;;;8.63;7.30;;;20.90;99.90;;;;;;5099103;28;20211;-80
2023/09/01 06:44:25;;;;;;;9.40;7.43;;;20.90;99.90;;;;;;5114739;27;20191;-80
2023/09/01 06:46:51;;;;;;;6.13;5.13;;;21.00;99.90;;;;;;5102759;28;20299;-80
2023/09/01 06:49:16;;;;;;;6.93;5.23;;;21.10;99.90;;;;;;5103261;28;20366;-81
2023/09/01 06:51:42;;;;;;;5.80;5.20;;;21.10;99.90;;;;;;5098907;27;20200;-79
2023/09/01 06:54:08;;;;;;;5.33;4.83;;;21.20;99.90;;;;;;5100008;28;20187;-80
2023/09/01 06:56:34;;;;;;;4.60;4.20;;;21.30;99.90;;;;;;5101001;28;20515;-80
2023/09/01 06:58:59;;;;;;;4.70;3.97;;;21.40;99.90;;;;;;5099245;28;20232;-80
2023/09/01 07:01:27;;;;;;;4.90;4.37;;;21.50;99.90;;;;;;5113504;27;20537;-79
2023/09/01 07:03:53;;;;;;;4.23;3.70;;;21.60;99.90;;;;;;5102171;28;20435;-81
2023/09/01 07:06:19;;;;;;;5.00;4.50;;;21.70;99.90;;;;;;5101614;27;20868;-81
2023/09/01 07:08:45;;;;;;;4.20;3.80;;;21.80;99.90;;;;;;5098737;27;20453;-81
2023/09/01 07:11:14;;;;;;;6.17;5.10;;;21.80;99.90;;;;;;5103721;27;20209;-80
2023/09/01 07:13:40;;;;;;;5.03;3.80;;;21.90;99.90;;;;;;5097997;28;20175;-79
2023/09/01 07:16:06;;;;;;;4.13;3.73;;;22.00;99.90;;;;;;5094620;28;20740;-81
2023/09/01 07:18:32;;;;;;;4.43;4.03;;;22.10;99.90;;;;;;5097084;28;20447;-81
2023/09/01 07:20:59;;;;;;;4.30;3.90;;;22.20;99.90;;;;;;5089701;28;20476;-78
2023/09/01 07:23:26;;;;;;;5.00;4.60;;;22.30;99.90;;;;;;5094741;28;20427;-79
2023/09/01 07:25:53;;;;;;;4.57;4.17;;;22.40;99.90;;;;;;5093020;28;20436;-79
2023/09/01 07:28:18;;;;;;;13.20;10.20;;;22.50;99.90;;;;;;5095003;28;20412;-78
2023/09/01 07:30:44;;;;;;;6.70;5.93;;;22.60;99.90;;;;;;5098908;28;20458;-79
2023/09/01 07:33:10;;;;;;;3.83;3.53;;;22.70;99.90;;;;;;5100074;28;20220;-79
2023/09/01 07:35:35;;;;;;;4.47;4.00;;;22.80;99.90;;;;;;5096952;28;20594;-79
2023/09/01 07:38:03;;;;;;;4.33;3.93;;;22.90;99.90;;;;;;5096097;28;20665;-79
2023/09/01 07:40:32;;;;;;;4.10;3.70;;;23.00;99.90;;;;;;5115455;28;20203;-80
2023/09/01 07:43:00;;;;;;;4.20;3.80;;;23.10;99.90;;;;;;5096011;28;20854;-80
2023/09/01 07:45:27;;;;;;;4.57;4.17;;;23.20;99.90;;;;;;5098382;28;20480;-80
2023/09/01 07:47:52;;;;;;;4.50;4.10;;;23.30;99.90;;;;;;5098544;28;20433;-78
2023/09/01 07:50:19;;;;;;;3.90;3.60;;;23.40;99.90;;;;;;5096622;28;21023;-80
2023/09/01 07:52:44;;;;;;;4.03;3.63;;;23.40;99.90;;;;;;5108212;28;20184;-80
2023/09/01 07:55:10;;;;;;;3.37;3.07;;;23.50;99.90;;;;;;5104364;28;21107;-78
2023/09/01 07:57:36;;;;;;;3.63;3.33;;;23.60;99.90;;;;;;5098107;28;20184;-79
2023/09/01 08:00:05;;;;;;;3.43;3.00;;;23.70;99.90;;;;;;5096651;28;20260;-79
2023/09/01 08:02:31;;;;;;;3.30;3.00;;;23.70;99.90;;;;;;5082131;28;20214;-85
2023/09/01 08:04:57;;;;;;;3.07;2.77;;;23.80;99.90;;;;;;5098347;28;20629;-79
2023/09/01 08:07:22;;;;;;;3.03;2.73;;;23.90;99.90;;;;;;5106625;28;21107;-79
2023/09/01 08:09:48;;;;;;;3.40;2.50;;;24.00;99.90;;;;;;5097815;28;20252;-80
2023/09/01 08:12:14;;;;;;;2.70;2.50;;;24.00;99.90;;;;;;5100622;28;20187;-80
2023/09/01 08:14:40;;;;;;;2.80;2.43;;;24.00;99.90;;;;;;5099618;28;20204;-76
2023/09/01 08:17:05;;;;;;;3.27;2.80;;;24.10;99.90;;;;;;5102222;28;20183;-79
2023/09/01 08:19:31;;;;;;;2.70;2.50;;;24.20;99.90;;;;;;5100773;28;20450;-80
2023/09/01 08:21:57;;;;;;;2.60;2.40;;;24.20;99.90;;;;;;5093159;28;20267;-84
2023/09/01 08:24:23;;;;;;;3.00;2.80;;;24.30;99.90;;;;;;5097992;28;20210;-81
2023/09/01 08:26:49;;;;;;;3.00;2.80;;;24.30;99.90;;;;;;5095075;28;20474;-83
2023/09/01 08:29:14;;;;;;;2.97;2.77;;;24.30;99.90;;;;;;5098893;28;20696;-86
2023/09/01 08:31:41;;;;;;;3.47;2.73;;;24.40;99.90;;;;;;5090434;28;20543;-82
2023/09/01 08:34:10;;;;;;;2.90;2.70;;;24.40;99.90;;;;;;5091243;28;20195;-84
2023/09/01 08:36:37;;;;;;;2.37;2.17;;;24.50;99.90;;;;;;5093843;28;20440;-83
2023/09/01 08:39:03;;;;;;;2.43;2.23;;;24.60;99.90;;;;;;5105480;27;20984;-83
2023/09/01 08:41:29;;;;;;;2.37;2.17;;;24.80;99.90;;;;;;5092755;28;20983;-83
2023/09/01 08:44:01;;;;;;;3.10;2.73;;;24.90;99.90;;;;;;5093732;28;20436;-79
2023/09/01 08:46:29;;;;;;;3.80;2.90;;;25.40;99.90;;;;;;5096620;28;20454;-86
2023/09/01 08:48:55;;;;;;;5.07;2.40;;;26.10;99.90;;;;;;5100540;28;20693;-84
2023/09/01 08:51:22;;;;;;;2.07;1.97;;;26.70;99.90;;;;;;5096782;28;21040;-85
2023/09/01 08:53:49;;;;;;;2.80;2.60;;;27.20;99.90;;;;;;5098294;28;20476;-83
2023/09/01 08:56:15;;;;;;;2.73;2.53;;;27.40;99.90;;;;;;5097103;28;20499;-85
2023/09/01 08:58:41;;;;;;;2.57;2.37;;;27.40;99.90;;;;;;5095536;28;20425;-83
2023/09/01 09:01:07;;;;;;;3.07;2.77;;;27.20;99.90;;;;;;5097440;28;20252;-83
2023/09/01 09:03:33;;;;;;;3.20;2.90;;;27.10;99.90;;;;;;5102095;28;20548;-83
2023/09/01 09:05:59;;;;;;;3.13;2.83;;;27.00;99.90;;;;;;5113851;27;20460;-84
2023/09/01 09:08:25;;;;;;;3.53;2.73;;;26.90;99.90;;;;;;5103190;28;20720;-83
2023/09/01 09:10:51;;;;;;;2.47;2.27;;;26.80;99.90;;;;;;5090404;28;20548;-83
2023/09/01 09:13:27;;;;;;;3.00;2.73;;;26.60;99.90;;;;;;5090684;28;20715;-82
2023/09/01 09:16:13;;;;;;;2.60;2.40;;;26.40;99.90;;;;;;5105392;27;20207;-83
2023/09/01 09:18:41;;;;;;;2.47;2.27;;;26.40;99.90;;;;;;5098940;28;20431;-82
2023/09/01 09:21:24;;;;;;;3.10;2.90;;;26.30;99.90;;;;;;5095167;28;20551;-83
2023/09/01 09:23:50;;;;;;;2.57;2.37;;;26.30;99.90;;;;;;5102305;28;20559;-82
2023/09/01 09:26:15;;;;;;;2.63;2.43;;;26.20;99.90;;;;;;5099576;28;20812;-81
2023/09/01 09:28:41;;;;;;;2.97;2.77;;;26.10;99.90;;;;;;5103636;28;20428;-81
2023/09/01 09:31:07;;;;;;;2.73;2.53;;;26.10;99.90;;;;;;5097869;28;20219;-81
2023/09/01 09:33:34;;;;;;;3.20;2.70;;;26.10;99.90;;;;;;5100980;28;20187;-82
2023/09/01 09:36:01;;;;;;;2.40;2.20;;;26.00;99.90;;;;;;5103099;28;20435;-83
2023/09/01 09:38:43;;;;;;;2.53;2.33;;;26.00;99.90;;;;;;5105892;27;21134;-83
2023/09/01 09:41:09;;;;;;;2.60;2.40;;;26.00;99.90;;;;;;5107899;27;20799;-83
2023/09/01 09:43:49;;;;;;;2.50;2.30;;;26.10;99.90;;;;;;5081827;28;20770;-80
2023/09/01 09:46:16;;;;;;;2.70;2.50;;;26.10;99.90;;;;;;5093532;28;20439;-80
2023/09/01 09:48:42;;;;;;;2.17;2.07;;;26.10;99.90;;;;;;5100367;28;20933;-80
2023/09/01 09:51:10;;;;;;;2.60;2.40;;;26.10;99.90;;;;;;5101205;28;20815;-82
2023/09/01 09:53:36;;;;;;;3.60;3.23;;;26.20;99.90;;;;;;5099754;28;21144;-81
2023/09/01 09:56:33;;;;;;;3.03;2.70;;;26.20;99.90;;;;;;5110229;27;20643;-80
2023/09/01 09:59:03;;;;;;;3.43;2.87;;;26.20;99.90;;;;;;5100772;28;20436;-80
2023/09/01 10:01:37;;;;;;;2.77;2.57;;;26.20;99.90;;;;;;5100533;28;21058;-80
2023/09/01 10:04:04;;;;;;;3.00;2.80;;;26.20;99.90;;;;;;5101976;28;20446;-82
2023/09/01 10:06:35;;;;;;;2.40;2.20;;;26.30;99.90;;;;;;5099152;28;21019;-81
2023/09/01 10:09:05;;;;;;;2.73;2.53;;;26.30;99.90;;;;;;5114038;27;20486;-81
2023/09/01 10:11:31;;;;;;;2.40;2.20;;;26.40;99.90;;;;;;5095619;28;20449;-81
2023/09/01 10:13:57;;;;;;;3.10;2.90;;;26.40;99.90;;;;;;5098681;28;20523;-82
2023/09/01 10:16:23;;;;;;;2.70;2.40;;;26.40;99.90;;;;;;5098750;28;20479;-82
2023/09/01 10:18:50;;;;;;;2.50;2.30;;;26.50;99.90;;;;;;5100326;28;20936;-82
2023/09/01 10:21:16;;;;;;;2.53;2.33;;;26.60;99.90;;;;;;5109045;27;20683;-80
2023/09/01 10:23:43;;;;;;;2.87;2.67;;;26.60;99.90;;;;;;5088808;28;21158;-82
2023/09/01 10:26:17;;;;;;;3.60;2.70;;;26.60;99.60;;;;;;5110387;27;20473;-81
2023/09/01 10:29:04;;;;;;;2.80;2.53;;;26.60;99.70;;;;;;5089447;28;20465;-80
2023/09/01 10:31:31;;;;;;;2.70;2.50;;;26.50;98.90;;;;;;5084052;28;20650;-81
2023/09/01 10:34:13;;;;;;;2.20;2.10;;;26.50;99.90;;;;;;5085141;28;20663;-80
2023/09/01 10:36:40;;;;;;;2.40;2.20;;;26.60;99.60;;;;;;5089429;28;20962;-81
2023/09/01 10:39:18;;;;;;;2.77;2.30;;;26.70;99.90;;;;;;5092554;28;20603;-80
2023/09/01 10:41:57;;;;;;;2.03;1.90;;;26.70;99.90;;;;;;5110879;27;20465;-80
2023/09/01 10:44:26;;;;;;;2.67;2.37;;;26.80;98.60;;;;;;5086360;28;20481;-80
2023/09/01 10:46:52;;;;;;;2.10;2.00;;;26.80;99.10;;;;;;5109103;27;20429;-80
2023/09/01 10:49:17;;;;;;;2.60;2.40;;;26.80;99.00;;;;;;5094799;28;20622;-81
2023/09/01 10:51:46;;;;;;;2.50;2.30;;;26.80;99.70;;;;;;5095578;28;20220;-80
2023/09/01 10:54:14;;;;;;;2.60;2.40;;;26.90;98.00;;;;;;5095638;28;20177;-81
2023/09/01 10:56:57;;;;;;;2.50;2.27;;;26.90;98.20;;;;;;5093465;28;21108;-79
2023/09/01 10:59:30;;;;;;;3.80;3.13;;;26.90;98.20;;;;;;5091488;28;20654;-79
2023/09/01 11:01:56;;;;;;;3.13;2.70;;;26.90;97.70;;;;;;5092601;28;20487;-81
2023/09/01 11:04:21;;;;;;;2.40;2.20;;;27.00;98.10;;;;;;5098979;28;20425;-79
2023/09/01 11:06:56;;;;;;;3.30;3.03;;;26.90;99.90;;;;;;5098149;27;20185;-79
2023/09/01 11:09:42;;;;;;;2.80;2.60;;;26.90;99.90;;;;;;5089495;28;20181;-79
2023/09/01 11:12:09;;;;;;;2.70;2.50;;;27.00;99.70;;;;;;5083651;28;20424;-81
2023/09/01 11:14:39;;;;;;;2.33;2.00;;;27.00;98.70;;;;;;5093356;28;20583;-80
2023/09/01 11:17:05;;;;;;;2.73;2.27;;;27.10;97.80;;;;;;5106984;27;20423;-79
2023/09/01 11:19:33;;;;;;;2.37;2.17;;;27.10;97.50;;;;;;5093599;28;20479;-80
2023/09/01 11:21:59;;;;;;;2.47;2.27;;;27.10;97.00;;;;;;5096676;28;20362;-80
2023/09/01 11:24:25;;;;;;;2.00;1.90;;;27.20;98.00;;;;;;5097911;28;20673;-81
2023/09/01 11:26:52;;;;;;;1.87;1.77;;;27.20;97.80;;;;;;5092615;28;20897;-79
2023/09/01 11:29:21;;;;;;;2.00;1.90;;;27.30;97.10;;;;;;5095073;28;20172;-80
2023/09/01 11:31:47;;;;;;;2.33;2.13;;;27.20;97.80;;;;;;5107930;27;20422;-82
2023/09/01 11:34:14;;;;;;;2.60;2.40;;;27.30;97.20;;;;;;5110016;27;20440;-81
2023/09/01 11:36:47;;;;;;;2.57;2.23;;;27.30;96.30;;;;;;5094489;28;20452;-80
2023/09/01 11:39:13;;;;;;;2.37;2.20;;;27.30;96.70;;;;;;5099513;27;20979;-81
2023/09/01 11:41:40;;;;;;;2.07;1.87;;;27.40;95.60;;;;;;5075131;28;20532;-79
2023/09/01 11:44:07;;;;;;;2.93;2.00;;;27.40;95.40;;;;;;5080839;28;20943;-79
2023/09/01 11:46:34;;;;;;;2.53;2.10;;;27.40;94.90;;;;;;5082904;28;21135;-79
2023/09/01 11:49:01;;;;;;;2.23;2.03;;;27.50;94.40;;;;;;5093005;28;20425;-80
2023/09/01 11:51:34;;;;;;;2.93;2.00;;;27.40;94.70;;;;;;5096287;28;20464;-81
2023/09/01 11:54:00;;;;;;;2.23;2.03;;;27.40;94.20;;;;;;5093798;28;20423;-80
2023/09/01 11:56:26;;;;;;;1.90;1.67;;;27.40;94.20;;;;;;5095484;28;20440;-79
2023/09/01 11:58:53;;;;;;;2.43;2.23;;;27.40;94.80;;;;;;5102079;28;20471;-81
2023/09/01 12:01:20;;;;;;;2.00;1.90;;;27.50;94.80;;;;;;5093481;28;20553;-80
2023/09/01 12:03:51;;;;;;;2.30;2.10;;;27.50;95.50;;;;;;5108143;28;20423;-81
2023/09/01 12:06:27;;;;;;;2.13;1.83;;;27.60;95.10;;;;;;5093991;28;20490;-81
2023/09/01 12:08:55;;;;;;;2.80;2.57;;;27.70;95.50;;;;;;5088152;28;20429;-81
2023/09/01 12:11:20;;;;;;;2.20;2.00;;;27.70;95.10;;;;;;5089991;28;20453;-81
2023/09/01 12:13:47;;;;;;;2.17;2.07;;;27.70;94.20;;;;;;5103107;27;20712;-80
2023/09/01 12:16:20;;;;;;;2.13;1.93;;;27.70;94.00;;;;;;5091517;28;20286;-79
2023/09/01 12:18:45;;;;;;;2.33;2.13;;;27.70;94.80;;;;;;5085854;28;20901;-80
2023/09/01 12:21:11;;;;;;;2.33;2.13;;;27.60;96.50;;;;;;5087105;28;20702;-82
2023/09/01 12:23:47;;;;;;;2.10;1.90;;;27.70;95.50;;;;;;5097899;27;20556;-81
2023/09/01 12:26:14;;;;;;;2.93;2.20;;;27.80;93.80;;;;;;5091258;28;20265;-79
2023/09/01 12:28:41;;;;;;;2.70;2.50;;;27.80;94.90;;;;;;5088055;28;20753;-79
2023/09/01 12:31:08;;;;;;;2.90;2.30;;;27.80;95.10;;;;;;5092294;28;20479;-81
2023/09/01 12:33:35;;;;;;;2.30;2.10;;;27.80;94.70;;;;;;5085624;28;21002;-79
2023/09/01 12:36:02;;;;;;;2.67;2.47;;;27.80;93.90;;;;;;5082190;28;20435;-81
2023/09/01 12:38:28;;;;;;;2.50;2.30;;;27.80;93.90;;;;;;5086012;28;20433;-79
2023/09/01 12:40:54;;;;;;;3.37;2.40;;;27.80;95.10;;;;;;5092972;28;20547;-81
2023/09/01 12:43:20;;;;;;;2.00;1.80;;;27.90;94.00;;;;;;5088606;28;20473;-81
2023/09/01 12:45:46;;;;;;;2.60;2.40;;;27.90;94.30;;;;;;5082825;28;20865;-81
2023/09/01 12:48:14;;;;;;;3.00;2.10;;;27.90;94.90;;;;;;5086613;28;20584;-81